sensor_id;sensor_type;location;lat;lon;timestamp;P1;durP1;ratioP1;P2;durP2;ratioP2
45382;SDS011;42455;51.660;5.824;2023-04-12T00:04:23;4.0;;;1.0;;
45382;SDS011;42455;51.660;5.824;2023-04-12T00:09:29;4.0;;;1.5;;
45382;SDS011;42455;51.660;5.824;2023-04-12T00:14:35;3.0;;;1.0;;
45382;SDS011;42455;51.660;5.824;2023-04-12T00:19:41;4.0;;;1.0;;
45382;SDS011;42455;51.660;5.824;2023-04-12T00:24:47;4.0;;;1.0;;
45382;SDS011;42455;51.660;5.824;2023-04-12T00:29:54;4.0;;;1.0;;
45382;SDS011;42455;51.660;5.824;2023-04-12T00:35:00;3.0;;;1.0;;
45382;SDS011;42455;51.660;5.824;2023-04-12T00:40:07;3.0;;;1.0;;
45382;SDS011;42455;51.660;5.824;2023-04-12T00:45:12;4.0;;;2.0;;
45382;SDS011;42455;51.660;5.824;2023-04-12T00:50:19;4.0;;;1.0;;
45382;SDS011;42455;51.660;5.824;2023-04-12T00:55:25;4.0;;;1.5;;
45382;SDS011;42455;51.660;5.824;2023-04-12T01:00:30;4.0;;;1.0;;
45382;SDS011;42455;51.660;5.824;2023-04-12T01:05:38;3.0;;;1.0;;
45382;SDS011;42455;51.660;5.824;2023-04-12T01:11:50;3.0;;;1.0;;
45382;SDS011;42455;51.660;5.824;2023-04-12T01:16:03;5.0;;;1.0;;
45382;SDS011;42455;51.660;5.824;2023-04-12T01:21:07;4.0;;;2.0;;
45382;SDS011;42455;51.660;5.824;2023-04-12T01:26:49;3.0;;;2.0;;
45382;SDS011;42455;51.660;5.824;2023-04-12T01:31:07;5.0;;;2.0;;
45382;SDS011;42455;51.660;5.824;2023-04-12T01:36:16;5.0;;;2.0;;
45382;SDS011;42455;51.660;5.824;2023-04-12T01:41:18;4.0;;;1.0;;
45382;SDS011;42455;51.660;5.824;2023-04-12T01:46:24;5.0;;;2.0;;
45382;SDS011;42455;51.660;5.824;2023-04-12T01:51:43;4.0;;;1.0;;
45382;SDS011;42455;51.660;5.824;2023-04-12T01:56:37;4.0;;;1.0;;
45382;SDS011;42455;51.660;5.824;2023-04-12T02:01:43;3.0;;;1.0;;
45382;SDS011;42455;51.660;5.824;2023-04-12T02:06:49;4.0;;;1.0;;
45382;SDS011;42455;51.660;5.824;2023-04-12T02:11:55;3.0;;;1.0;;
45382;SDS011;42455;51.660;5.824;2023-04-12T02:17:01;3.0;;;1.0;;
45382;SDS011;42455;51.660;5.824;2023-04-12T02:22:07;4.0;;;2.0;;
45382;SDS011;42455;51.660;5.824;2023-04-12T02:27:13;3.5;;;2.0;;
45382;SDS011;42455;51.660;5.824;2023-04-12T02:32:20;5.0;;;2.0;;
45382;SDS011;42455;51.660;5.824;2023-04-12T02:37:26;3.0;;;1.0;;
45382;SDS011;42455;51.660;5.824;2023-04-12T02:42:32;3.0;;;1.0;;
45382;SDS011;42455;51.660;5.824;2023-04-12T02:47:38;3.0;;;1.0;;
45382;SDS011;42455;51.660;5.824;2023-04-12T02:52:45;2.0;;;1.0;;
45382;SDS011;42455;51.660;5.824;2023-04-12T02:57:51;3.0;;;1.0;;
45382;SDS011;42455;51.660;5.824;2023-04-12T03:08:03;2.0;;;1.0;;
45382;SDS011;42455;51.660;5.824;2023-04-12T03:13:09;3.0;;;1.0;;
45382;SDS011;42455;51.660;5.824;2023-04-12T03:18:16;2.0;;;1.0;;
45382;SDS011;42455;51.660;5.824;2023-04-12T03:23:22;2.0;;;1.0;;
45382;SDS011;42455;51.660;5.824;2023-04-12T03:28:28;2.0;;;1.0;;
45382;SDS011;42455;51.660;5.824;2023-04-12T03:33:34;2.0;;;1.0;;
45382;SDS011;42455;51.660;5.824;2023-04-12T03:38:39;2.0;;;1.0;;
45382;SDS011;42455;51.660;5.824;2023-04-12T03:43:46;2.0;;;1.0;;
45382;SDS011;42455;51.660;5.824;2023-04-12T03:53:57;3.0;;;1.0;;
45382;SDS011;42455;51.660;5.824;2023-04-12T03:59:02;3.0;;;1.0;;
45382;SDS011;42455;51.660;5.824;2023-04-12T04:04:09;3.0;;;1.0;;
45382;SDS011;42455;51.660;5.824;2023-04-12T04:09:14;4.0;;;1.0;;
45382;SDS011;42455;51.660;5.824;2023-04-12T04:14:20;2.0;;;1.0;;
45382;SDS011;42455;51.660;5.824;2023-04-12T04:19:26;4.0;;;1.0;;
45382;SDS011;42455;51.660;5.824;2023-04-12T04:24:32;2.5;;;1.0;;
45382;SDS011;42455;51.660;5.824;2023-04-12T04:29:38;2.0;;;1.0;;
45382;SDS011;42455;51.660;5.824;2023-04-12T04:34:45;2.0;;;1.0;;
45382;SDS011;42455;51.660;5.824;2023-04-12T04:39:51;2.0;;;1.0;;
45382;SDS011;42455;51.660;5.824;2023-04-12T04:44:57;3.0;;;1.0;;
45382;SDS011;42455;51.660;5.824;2023-04-12T04:50:03;3.0;;;1.0;;
45382;SDS011;42455;51.660;5.824;2023-04-12T04:55:10;3.0;;;1.0;;
45382;SDS011;42455;51.660;5.824;2023-04-12T05:00:16;3.0;;;1.0;;
45382;SDS011;42455;51.660;5.824;2023-04-12T05:05:22;2.0;;;1.0;;
45382;SDS011;42455;51.660;5.824;2023-04-12T05:10:28;2.0;;;1.0;;
45382;SDS011;42455;51.660;5.824;2023-04-12T05:15:34;1.0;;;1.0;;
45382;SDS011;42455;51.660;5.824;2023-04-12T05:20:41;3.0;;;1.0;;
45382;SDS011;42455;51.660;5.824;2023-04-12T05:25:47;3.0;;;1.0;;
45382;SDS011;42455;51.660;5.824;2023-04-12T05:30:53;2.0;;;1.0;;
45382;SDS011;42455;51.660;5.824;2023-04-12T05:35:59;3.0;;;1.0;;
45382;SDS011;42455;51.660;5.824;2023-04-12T05:41:06;2.0;;;1.0;;
45382;SDS011;42455;51.660;5.824;2023-04-12T05:46:12;2.0;;;1.0;;
45382;SDS011;42455;51.660;5.824;2023-04-12T05:51:18;2.0;;;1.0;;
45382;SDS011;42455;51.660;5.824;2023-04-12T05:56:23;2.0;;;1.0;;
45382;SDS011;42455;51.660;5.824;2023-04-12T06:01:29;2.0;;;1.0;;
45382;SDS011;42455;51.660;5.824;2023-04-12T06:06:34;2.0;;;1.0;;
45382;SDS011;42455;51.660;5.824;2023-04-12T06:11:41;2.0;;;1.0;;
45382;SDS011;42455;51.660;5.824;2023-04-12T06:16:47;2.0;;;2.0;;
45382;SDS011;42455;51.660;5.824;2023-04-12T06:21:53;2.0;;;2.0;;
45382;SDS011;42455;51.660;5.824;2023-04-12T06:26:59;2.0;;;2.0;;
45382;SDS011;42455;51.660;5.824;2023-04-12T06:32:06;2.0;;;2.0;;
45382;SDS011;42455;51.660;5.824;2023-04-12T06:37:12;2.0;;;2.0;;
45382;SDS011;42455;51.660;5.824;2023-04-12T06:42:18;2.0;;;1.0;;
45382;SDS011;42455;51.660;5.824;2023-04-12T06:47:24;2.0;;;2.0;;
45382;SDS011;42455;51.660;5.824;2023-04-12T06:52:30;2.0;;;2.0;;
45382;SDS011;42455;51.660;5.824;2023-04-12T06:57:37;2.0;;;1.0;;
45382;SDS011;42455;51.660;5.824;2023-04-12T07:02:43;1.0;;;1.0;;
45382;SDS011;42455;51.660;5.824;2023-04-12T07:07:49;1.0;;;1.0;;
45382;SDS011;42455;51.660;5.824;2023-04-12T07:12:55;2.0;;;1.0;;
45382;SDS011;42455;51.660;5.824;2023-04-12T07:18:01;2.0;;;2.0;;
45382;SDS011;42455;51.660;5.824;2023-04-12T07:23:08;2.0;;;2.0;;
45382;SDS011;42455;51.660;5.824;2023-04-12T07:28:14;2.0;;;2.0;;
45382;SDS011;42455;51.660;5.824;2023-04-12T07:33:20;2.0;;;2.0;;
45382;SDS011;42455;51.660;5.824;2023-04-12T07:38:26;2.0;;;2.0;;
45382;SDS011;42455;51.660;5.824;2023-04-12T07:43:33;2.0;;;1.0;;
45382;SDS011;42455;51.660;5.824;2023-04-12T07:48:39;2.0;;;2.0;;
45382;SDS011;42455;51.660;5.824;2023-04-12T07:53:44;3.0;;;2.0;;
45382;SDS011;42455;51.660;5.824;2023-04-12T07:58:50;3.0;;;2.0;;
45382;SDS011;42455;51.660;5.824;2023-04-12T08:03:55;4.0;;;3.0;;
45382;SDS011;42455;51.660;5.824;2023-04-12T08:09:02;5.0;;;3.0;;
45382;SDS011;42455;51.660;5.824;2023-04-12T08:14:08;4.0;;;3.0;;
45382;SDS011;42455;51.660;5.824;2023-04-12T08:19:14;5.0;;;3.0;;
45382;SDS011;42455;51.660;5.824;2023-04-12T08:24:20;5.0;;;3.0;;
45382;SDS011;42455;51.660;5.824;2023-04-12T08:29:26;5.0;;;3.0;;
45382;SDS011;42455;51.660;5.824;2023-04-12T08:34:33;6.0;;;3.0;;
45382;SDS011;42455;51.660;5.824;2023-04-12T08:39:39;7.0;;;3.0;;
45382;SDS011;42455;51.660;5.824;2023-04-12T08:44:45;5.5;;;3.0;;
45382;SDS011;42455;51.660;5.824;2023-04-12T08:49:51;6.5;;;4.0;;
45382;SDS011;42455;51.660;5.824;2023-04-12T08:54:57;6.0;;;3.0;;
45382;SDS011;42455;51.660;5.824;2023-04-12T09:00:04;8.5;;;5.0;;
45382;SDS011;42455;51.660;5.824;2023-04-12T09:05:10;7.5;;;4.0;;
45382;SDS011;42455;51.660;5.824;2023-04-12T09:10:30;6.0;;;3.0;;
45382;SDS011;42455;51.660;5.824;2023-04-12T09:15:22;8.0;;;3.5;;
45382;SDS011;42455;51.660;5.824;2023-04-12T09:20:29;6.0;;;3.0;;
45382;SDS011;42455;51.660;5.824;2023-04-12T09:25:37;5.0;;;3.0;;
45382;SDS011;42455;51.660;5.824;2023-04-12T09:30:41;6.0;;;3.0;;
45382;SDS011;42455;51.660;5.824;2023-04-12T09:35:47;6.0;;;3.0;;
45382;SDS011;42455;51.660;5.824;2023-04-12T09:40:54;8.0;;;3.0;;
45382;SDS011;42455;51.660;5.824;2023-04-12T09:46:08;7.5;;;3.0;;
45382;SDS011;42455;51.660;5.824;2023-04-12T09:51:05;8.0;;;3.0;;
45382;SDS011;42455;51.660;5.824;2023-04-12T09:56:11;10.0;;;4.0;;
45382;SDS011;42455;51.660;5.824;2023-04-12T10:01:17;7.0;;;3.0;;
45382;SDS011;42455;51.660;5.824;2023-04-12T10:06:22;10.0;;;4.0;;
45382;SDS011;42455;51.660;5.824;2023-04-12T10:11:29;9.0;;;4.0;;
45382;SDS011;42455;51.660;5.824;2023-04-12T10:16:35;10.0;;;4.0;;
45382;SDS011;42455;51.660;5.824;2023-04-12T10:21:41;9.5;;;4.0;;
45382;SDS011;42455;51.660;5.824;2023-04-12T10:26:47;11.0;;;4.0;;
45382;SDS011;42455;51.660;5.824;2023-04-12T10:31:54;9.0;;;4.0;;
45382;SDS011;42455;51.660;5.824;2023-04-12T10:37:00;12.0;;;4.0;;
45382;SDS011;42455;51.660;5.824;2023-04-12T10:42:21;11.0;;;4.0;;
45382;SDS011;42455;51.660;5.824;2023-04-12T10:47:12;11.0;;;5.0;;
45382;SDS011;42455;51.660;5.824;2023-04-12T10:52:18;12.0;;;5.0;;
45382;SDS011;42455;51.660;5.824;2023-04-12T10:57:43;10.0;;;5.0;;
45382;SDS011;42455;51.660;5.824;2023-04-12T11:02:31;10.0;;;5.0;;
45382;SDS011;42455;51.660;5.824;2023-04-12T11:07:37;11.0;;;4.0;;
45382;SDS011;42455;51.660;5.824;2023-04-12T11:12:47;10.0;;;4.0;;
45382;SDS011;42455;51.660;5.824;2023-04-12T11:17:52;9.0;;;3.0;;
45382;SDS011;42455;51.660;5.824;2023-04-12T11:22:56;9.5;;;3.0;;
45382;SDS011;42455;51.660;5.824;2023-04-12T11:28:02;8.0;;;3.0;;
45382;SDS011;42455;51.660;5.824;2023-04-12T11:33:08;11.0;;;3.0;;
45382;SDS011;42455;51.660;5.824;2023-04-12T11:38:14;9.0;;;3.0;;
45382;SDS011;42455;51.660;5.824;2023-04-12T11:43:20;8.0;;;3.0;;
45382;SDS011;42455;51.660;5.824;2023-04-12T11:48:26;10.0;;;3.0;;
45382;SDS011;42455;51.660;5.824;2023-04-12T11:53:32;10.0;;;3.0;;
45382;SDS011;42455;51.660;5.824;2023-04-12T11:58:37;11.0;;;4.0;;
45382;SDS011;42455;51.660;5.824;2023-04-12T12:03:44;11.0;;;4.0;;
45382;SDS011;42455;51.660;5.824;2023-04-12T12:08:50;10.0;;;4.0;;
45382;SDS011;42455;51.660;5.824;2023-04-12T12:13:56;10.5;;;4.0;;
45382;SDS011;42455;51.660;5.824;2023-04-12T12:19:03;10.0;;;5.0;;
45382;SDS011;42455;51.660;5.824;2023-04-12T12:24:10;12.0;;;7.0;;
45382;SDS011;42455;51.660;5.824;2023-04-12T12:29:16;11.0;;;7.0;;
45382;SDS011;42455;51.660;5.824;2023-04-12T12:34:22;12.0;;;7.0;;
45382;SDS011;42455;51.660;5.824;2023-04-12T12:39:27;12.0;;;6.0;;
45382;SDS011;42455;51.660;5.824;2023-04-12T12:44:33;12.0;;;6.0;;
45382;SDS011;42455;51.660;5.824;2023-04-12T12:49:39;13.0;;;6.0;;
45382;SDS011;42455;51.660;5.824;2023-04-12T12:54:46;12.0;;;5.0;;
45382;SDS011;42455;51.660;5.824;2023-04-12T12:59:52;6.0;;;2.0;;
45382;SDS011;42455;51.660;5.824;2023-04-12T13:04:58;6.0;;;2.0;;
45382;SDS011;42455;51.660;5.824;2023-04-12T13:10:04;5.0;;;2.0;;
45382;SDS011;42455;51.660;5.824;2023-04-12T13:15:10;5.0;;;2.0;;
45382;SDS011;42455;51.660;5.824;2023-04-12T13:20:17;6.0;;;2.0;;
45382;SDS011;42455;51.660;5.824;2023-04-12T13:25:23;3.0;;;2.0;;
45382;SDS011;42455;51.660;5.824;2023-04-12T13:30:29;6.0;;;3.0;;
45382;SDS011;42455;51.660;5.824;2023-04-12T13:35:35;7.0;;;2.0;;
45382;SDS011;42455;51.660;5.824;2023-04-12T13:40:41;8.0;;;2.5;;
45382;SDS011;42455;51.660;5.824;2023-04-12T13:45:47;7.0;;;2.0;;
45382;SDS011;42455;51.660;5.824;2023-04-12T13:50:53;6.0;;;3.0;;
45382;SDS011;42455;51.660;5.824;2023-04-12T13:55:58;7.0;;;3.0;;
45382;SDS011;42455;51.660;5.824;2023-04-12T14:01:04;7.5;;;3.0;;
45382;SDS011;42455;51.660;5.824;2023-04-12T14:06:11;7.0;;;3.0;;
45382;SDS011;42455;51.660;5.824;2023-04-12T14:11:17;4.0;;;1.0;;
45382;SDS011;42455;51.660;5.824;2023-04-12T14:16:23;4.0;;;1.0;;
45382;SDS011;42455;51.660;5.824;2023-04-12T14:21:29;2.5;;;2.0;;
45382;SDS011;42455;51.660;5.824;2023-04-12T14:26:35;2.5;;;1.0;;
45382;SDS011;42455;51.660;5.824;2023-04-12T14:36:48;2.0;;;1.0;;
45382;SDS011;42455;51.660;5.824;2023-04-12T14:41:54;2.5;;;1.0;;
45382;SDS011;42455;51.660;5.824;2023-04-12T14:47:00;1.0;;;1.0;;
45382;SDS011;42455;51.660;5.824;2023-04-12T14:52:06;1.0;;;1.0;;
45382;SDS011;42455;51.660;5.824;2023-04-12T14:57:13;2.0;;;1.0;;
45382;SDS011;42455;51.660;5.824;2023-04-12T15:02:19;2.5;;;1.0;;
45382;SDS011;42455;51.660;5.824;2023-04-12T15:07:25;3.0;;;1.0;;
45382;SDS011;42455;51.660;5.824;2023-04-12T15:12:31;1.0;;;1.0;;
45382;SDS011;42455;51.660;5.824;2023-04-12T15:17:37;4.0;;;1.0;;
45382;SDS011;42455;51.660;5.824;2023-04-12T15:22:44;3.0;;;1.0;;
45382;SDS011;42455;51.660;5.824;2023-04-12T15:27:50;2.0;;;1.0;;
45382;SDS011;42455;51.660;5.824;2023-04-12T15:32:56;2.0;;;1.0;;
45382;SDS011;42455;51.660;5.824;2023-04-12T15:38:02;1.5;;;1.0;;
45382;SDS011;42455;51.660;5.824;2023-04-12T15:43:08;1.0;;;0.0;;
45382;SDS011;42455;51.660;5.824;2023-04-12T15:48:14;1.0;;;0.0;;
45382;SDS011;42455;51.660;5.824;2023-04-12T15:53:21;1.0;;;0.0;;
45382;SDS011;42455;51.660;5.824;2023-04-12T15:58:26;0.0;;;0.0;;
45382;SDS011;42455;51.660;5.824;2023-04-12T16:03:32;1.0;;;0.0;;
45382;SDS011;42455;51.660;5.824;2023-04-12T16:08:38;1.0;;;1.0;;
45382;SDS011;42455;51.660;5.824;2023-04-12T16:13:44;2.0;;;1.0;;
45382;SDS011;42455;51.660;5.824;2023-04-12T16:18:50;2.0;;;1.0;;
45382;SDS011;42455;51.660;5.824;2023-04-12T16:23:56;2.0;;;1.0;;
45382;SDS011;42455;51.660;5.824;2023-04-12T16:29:02;2.0;;;2.0;;
45382;SDS011;42455;51.660;5.824;2023-04-12T16:34:09;3.0;;;2.0;;
45382;SDS011;42455;51.660;5.824;2023-04-12T16:39:15;2.0;;;1.0;;
45382;SDS011;42455;51.660;5.824;2023-04-12T16:44:21;1.0;;;1.0;;
45382;SDS011;42455;51.660;5.824;2023-04-12T16:49:27;2.0;;;1.0;;
45382;SDS011;42455;51.660;5.824;2023-04-12T16:54:33;2.0;;;1.0;;
45382;SDS011;42455;51.660;5.824;2023-04-12T16:59:40;2.0;;;2.0;;
45382;SDS011;42455;51.660;5.824;2023-04-12T17:04:46;2.0;;;1.0;;
45382;SDS011;42455;51.660;5.824;2023-04-12T17:09:52;2.0;;;2.0;;
45382;SDS011;42455;51.660;5.824;2023-04-12T17:14:58;3.0;;;2.0;;
45382;SDS011;42455;51.660;5.824;2023-04-12T17:20:05;3.0;;;2.0;;
45382;SDS011;42455;51.660;5.824;2023-04-12T17:25:11;3.0;;;2.0;;
45382;SDS011;42455;51.660;5.824;2023-04-12T17:30:17;3.5;;;2.0;;
45382;SDS011;42455;51.660;5.824;2023-04-12T17:35:23;4.0;;;2.0;;
45382;SDS011;42455;51.660;5.824;2023-04-12T17:40:29;3.0;;;2.0;;
45382;SDS011;42455;51.660;5.824;2023-04-12T17:45:36;3.5;;;2.0;;
45382;SDS011;42455;51.660;5.824;2023-04-12T17:50:42;3.0;;;2.0;;
45382;SDS011;42455;51.660;5.824;2023-04-12T17:55:47;2.0;;;2.0;;
45382;SDS011;42455;51.660;5.824;2023-04-12T18:00:53;2.5;;;2.0;;
45382;SDS011;42455;51.660;5.824;2023-04-12T18:05:58;4.0;;;2.0;;
45382;SDS011;42455;51.660;5.824;2023-04-12T18:11:05;3.5;;;2.0;;
45382;SDS011;42455;51.660;5.824;2023-04-12T18:16:11;4.0;;;3.0;;
45382;SDS011;42455;51.660;5.824;2023-04-12T18:21:17;4.0;;;3.0;;
45382;SDS011;42455;51.660;5.824;2023-04-12T18:26:23;4.0;;;3.0;;
45382;SDS011;42455;51.660;5.824;2023-04-12T18:31:29;5.0;;;3.0;;
45382;SDS011;42455;51.660;5.824;2023-04-12T18:36:36;4.0;;;3.0;;
45382;SDS011;42455;51.660;5.824;2023-04-12T18:41:42;4.0;;;3.0;;
45382;SDS011;42455;51.660;5.824;2023-04-12T18:46:48;4.0;;;3.0;;
45382;SDS011;42455;51.660;5.824;2023-04-12T18:51:55;4.0;;;3.0;;
45382;SDS011;42455;51.660;5.824;2023-04-12T18:57:00;3.0;;;2.0;;
45382;SDS011;42455;51.660;5.824;2023-04-12T19:02:07;4.0;;;2.0;;
45382;SDS011;42455;51.660;5.824;2023-04-12T19:07:13;2.0;;;2.0;;
45382;SDS011;42455;51.660;5.824;2023-04-12T19:12:19;3.0;;;2.0;;
45382;SDS011;42455;51.660;5.824;2023-04-12T19:17:25;3.0;;;2.0;;
45382;SDS011;42455;51.660;5.824;2023-04-12T19:22:31;3.0;;;2.0;;
45382;SDS011;42455;51.660;5.824;2023-04-12T19:27:38;3.0;;;2.0;;
45382;SDS011;42455;51.660;5.824;2023-04-12T19:32:44;2.0;;;2.0;;
45382;SDS011;42455;51.660;5.824;2023-04-12T19:37:50;3.5;;;2.0;;
45382;SDS011;42455;51.660;5.824;2023-04-12T19:42:56;3.0;;;2.0;;
45382;SDS011;42455;51.660;5.824;2023-04-12T19:48:03;3.0;;;2.0;;
45382;SDS011;42455;51.660;5.824;2023-04-12T19:53:08;4.0;;;3.0;;
45382;SDS011;42455;51.660;5.824;2023-04-12T19:58:14;3.0;;;2.0;;
45382;SDS011;42455;51.660;5.824;2023-04-12T20:03:20;3.0;;;2.0;;
45382;SDS011;42455;51.660;5.824;2023-04-12T20:08:25;5.0;;;2.0;;
45382;SDS011;42455;51.660;5.824;2023-04-12T20:13:32;3.0;;;2.0;;
45382;SDS011;42455;51.660;5.824;2023-04-12T20:18:38;4.0;;;2.0;;
45382;SDS011;42455;51.660;5.824;2023-04-12T20:23:44;3.0;;;2.0;;
45382;SDS011;42455;51.660;5.824;2023-04-12T20:28:50;3.0;;;2.0;;
45382;SDS011;42455;51.660;5.824;2023-04-12T20:33:56;3.0;;;2.0;;
45382;SDS011;42455;51.660;5.824;2023-04-12T20:39:03;2.0;;;2.0;;
45382;SDS011;42455;51.660;5.824;2023-04-12T20:44:09;2.0;;;1.0;;
45382;SDS011;42455;51.660;5.824;2023-04-12T20:49:15;2.0;;;1.0;;
45382;SDS011;42455;51.660;5.824;2023-04-12T20:54:21;2.0;;;1.0;;
45382;SDS011;42455;51.660;5.824;2023-04-12T20:59:27;2.0;;;1.0;;
45382;SDS011;42455;51.660;5.824;2023-04-12T21:04:34;2.0;;;1.0;;
45382;SDS011;42455;51.660;5.824;2023-04-12T21:09:40;1.5;;;1.0;;
45382;SDS011;42455;51.660;5.824;2023-04-12T21:14:46;1.0;;;0.0;;
45382;SDS011;42455;51.660;5.824;2023-04-12T21:19:52;2.0;;;1.0;;
45382;SDS011;42455;51.660;5.824;2023-04-12T21:24:59;1.0;;;0.0;;
45382;SDS011;42455;51.660;5.824;2023-04-12T21:30:05;1.0;;;0.0;;
45382;SDS011;42455;51.660;5.824;2023-04-12T21:35:12;1.0;;;0.0;;
45382;SDS011;42455;51.660;5.824;2023-04-12T21:40:17;1.0;;;0.0;;
45382;SDS011;42455;51.660;5.824;2023-04-12T21:45:24;1.0;;;0.0;;
45382;SDS011;42455;51.660;5.824;2023-04-12T21:50:30;1.0;;;0.0;;
45382;SDS011;42455;51.660;5.824;2023-04-12T21:55:35;1.0;;;0.0;;
45382;SDS011;42455;51.660;5.824;2023-04-12T22:00:41;1.0;;;1.0;;
45382;SDS011;42455;51.660;5.824;2023-04-12T22:05:47;2.0;;;1.0;;
45382;SDS011;42455;51.660;5.824;2023-04-12T22:10:53;2.0;;;1.0;;
45382;SDS011;42455;51.660;5.824;2023-04-12T22:15:59;1.0;;;1.0;;
45382;SDS011;42455;51.660;5.824;2023-04-12T22:21:05;1.0;;;1.0;;
45382;SDS011;42455;51.660;5.824;2023-04-12T22:26:11;2.0;;;1.0;;
45382;SDS011;42455;51.660;5.824;2023-04-12T22:31:17;2.0;;;1.0;;
45382;SDS011;42455;51.660;5.824;2023-04-12T22:36:24;1.0;;;1.0;;
45382;SDS011;42455;51.660;5.824;2023-04-12T22:41:30;1.0;;;1.0;;
45382;SDS011;42455;51.660;5.824;2023-04-12T22:46:36;2.0;;;1.0;;
45382;SDS011;42455;51.660;5.824;2023-04-12T22:51:42;1.0;;;1.0;;
45382;SDS011;42455;51.660;5.824;2023-04-12T22:56:48;1.0;;;1.0;;
45382;SDS011;42455;51.660;5.824;2023-04-12T23:01:55;1.5;;;1.0;;
45382;SDS011;42455;51.660;5.824;2023-04-12T23:07:01;1.0;;;0.0;;
45382;SDS011;42455;51.660;5.824;2023-04-12T23:12:07;1.0;;;1.0;;
45382;SDS011;42455;51.660;5.824;2023-04-12T23:17:13;2.0;;;1.0;;
45382;SDS011;42455;51.660;5.824;2023-04-12T23:22:19;1.0;;;0.0;;
45382;SDS011;42455;51.660;5.824;2023-04-12T23:27:26;2.0;;;1.0;;
45382;SDS011;42455;51.660;5.824;2023-04-12T23:32:32;2.0;;;1.0;;
45382;SDS011;42455;51.660;5.824;2023-04-12T23:37:38;1.0;;;0.0;;
45382;SDS011;42455;51.660;5.824;2023-04-12T23:42:45;2.0;;;0.5;;
45382;SDS011;42455;51.660;5.824;2023-04-12T23:47:50;2.0;;;1.0;;
45382;SDS011;42455;51.660;5.824;2023-04-12T23:52:57;2.0;;;1.0;;
45382;SDS011;42455;51.660;5.824;2023-04-12T23:58:03;1.0;;;1.0;;
